createdAt,value
2019-02-25T00:00:45.356Z,40.27
2019-02-25T00:03:17.098Z,40.47
2019-02-25T00:05:50.166Z,43.37
2019-02-25T00:08:21.917Z,40.37
2019-02-25T00:10:53.560Z,41.90
2019-02-25T00:13:31.110Z,41.77
2019-02-25T00:16:03.050Z,42.43
2019-02-25T00:18:34.772Z,40.20
2019-02-25T00:21:06.572Z,43.73
2019-02-25T00:23:38.402Z,38.43
2019-02-25T00:26:10.238Z,41.03
2019-02-25T00:28:42.149Z,37.60
2019-02-25T00:31:13.878Z,40.37
2019-02-25T00:33:45.665Z,41.83
2019-02-25T00:36:17.478Z,41.67
2019-02-25T00:38:49.370Z,40.43
2019-02-25T00:41:21.187Z,43.27
2019-02-25T00:43:54.306Z,44.10
2019-02-25T00:46:26.037Z,43.57
2019-02-25T00:48:57.929Z,44.20
2019-02-25T00:51:29.718Z,42.53
2019-02-25T00:54:01.629Z,41.10
2019-02-25T00:56:33.459Z,44.07
2019-02-25T00:59:05.159Z,42.50
2019-02-25T01:01:37.005Z,40.27
2019-02-25T01:04:08.772Z,41.47
2019-02-25T01:06:40.436Z,42.53
2019-02-25T01:09:12.470Z,40.10
2019-02-25T01:11:44.257Z,36.90
2019-02-25T01:14:16.004Z,38.97
2019-02-25T01:16:47.741Z,38.43
2019-02-25T01:19:19.532Z,40.27
2019-02-25T01:21:51.400Z,45.53
2019-02-25T01:24:23.195Z,40.60
2019-02-25T01:26:54.942Z,37.73
2019-02-25T01:29:26.732Z,42.00
2019-02-25T01:31:58.550Z,41.40
2019-02-25T01:34:34.171Z,39.00
2019-02-25T01:37:06.103Z,40.83
2019-02-25T01:39:38.062Z,44.40
2019-02-25T01:42:11.298Z,45.43
2019-02-25T01:44:44.005Z,42.77
2019-02-25T01:47:15.849Z,42.00
2019-02-25T01:49:47.491Z,43.60
2019-02-25T01:52:19.193Z,43.20
2019-02-25T01:54:50.942Z,42.63
2019-02-25T01:57:22.766Z,38.97
2019-02-25T01:59:54.514Z,42.30
2019-02-25T02:02:26.394Z,36.93
2019-02-25T02:04:58.071Z,46.33
2019-02-25T02:07:29.755Z,42.20
2019-02-25T02:10:01.461Z,40.10
2019-02-25T02:12:33.411Z,40.63
2019-02-25T02:15:05.661Z,34.10
2019-02-25T02:17:37.417Z,37.63
2019-02-25T02:20:09.682Z,34.93
2019-02-25T02:22:41.531Z,40.50
2019-02-25T02:25:13.817Z,39.57
2019-02-25T02:27:45.779Z,38.63
2019-02-25T02:30:18.232Z,37.73
2019-02-25T02:32:50.088Z,36.07
2019-02-25T02:35:21.753Z,38.87
2019-02-25T02:37:53.702Z,37.40
2019-02-25T02:40:25.324Z,35.60
2019-02-25T02:42:58.036Z,36.10
2019-02-25T02:46:01.261Z,33.57
2019-02-25T02:48:40.286Z,32.63
2019-02-25T02:51:11.958Z,36.00
2019-02-25T02:53:43.691Z,36.80
2019-02-25T02:56:15.569Z,30.70
2019-02-25T02:58:47.497Z,33.17
2019-02-25T03:01:19.223Z,29.30
2019-02-25T03:03:51.086Z,33.07
2019-02-25T03:06:23.838Z,32.73
2019-02-25T03:08:55.781Z,33.30
2019-02-25T03:11:27.488Z,33.80
2019-02-25T03:13:59.272Z,36.03
2019-02-25T03:16:30.958Z,35.43
2019-02-25T03:19:02.597Z,33.77
2019-02-25T03:21:34.243Z,31.03
2019-02-25T03:24:06.120Z,32.87
2019-02-25T03:26:37.989Z,33.93
2019-02-25T03:29:10.795Z,31.33
2019-02-25T03:31:42.795Z,31.23
2019-02-25T03:34:14.578Z,29.73
2019-02-25T03:36:46.216Z,33.30
2019-02-25T03:39:18.012Z,35.63
2019-02-25T03:41:50.176Z,32.67
2019-02-25T03:44:21.900Z,30.53
2019-02-25T03:46:53.795Z,35.27
2019-02-25T03:49:25.985Z,35.97
2019-02-25T03:51:57.761Z,39.87
2019-02-25T03:54:29.581Z,29.73
2019-02-25T03:57:01.949Z,31.53
2019-02-25T03:59:33.919Z,34.60
2019-02-25T04:02:05.685Z,34.77
2019-02-25T04:04:37.417Z,32.00
2019-02-25T04:07:10.006Z,33.33
2019-02-25T04:09:41.680Z,32.23
2019-02-25T04:12:13.511Z,30.63
2019-02-25T04:14:45.196Z,32.97
2019-02-25T04:17:16.929Z,32.90
2019-02-25T04:19:48.925Z,34.33
2019-02-25T04:22:20.657Z,32.83
2019-02-25T04:24:52.316Z,43.83
2019-02-25T04:27:24.109Z,33.80
2019-02-25T04:29:56.011Z,35.20
2019-02-25T04:32:27.735Z,32.07
2019-02-25T04:34:59.682Z,35.83
2019-02-25T04:37:31.577Z,32.77
2019-02-25T04:40:03.361Z,31.33
2019-02-25T04:42:35.210Z,34.63
2019-02-25T04:45:08.831Z,31.20
2019-02-25T04:47:40.614Z,35.07
2019-02-25T04:50:13.342Z,35.70
2019-02-25T04:52:45.255Z,35.80
2019-02-25T04:55:17.234Z,34.20
2019-02-25T04:57:49.430Z,30.80
2019-02-25T05:00:21.090Z,30.67
2019-02-25T05:02:52.951Z,28.60
2019-02-25T05:05:24.741Z,29.57
2019-02-25T05:07:56.649Z,30.30
2019-02-25T05:10:28.339Z,32.83
2019-02-25T05:13:05.028Z,32.07
2019-02-25T05:15:37.717Z,32.43
2019-02-25T05:18:09.439Z,31.10
2019-02-25T05:20:41.161Z,31.40
2019-02-25T05:23:12.854Z,30.33
2019-02-25T05:25:44.602Z,30.27
2019-02-25T05:28:16.358Z,29.23
2019-02-25T05:30:48.220Z,29.10
2019-02-25T05:33:19.981Z,31.20
2019-02-25T05:35:51.936Z,30.00
2019-02-25T05:38:23.721Z,30.23
2019-02-25T05:40:55.538Z,31.73
2019-02-25T05:43:27.323Z,31.40
2019-02-25T05:46:00.249Z,26.97
2019-02-25T05:48:32.130Z,32.07
2019-02-25T05:51:03.960Z,28.07
2019-02-25T05:53:35.762Z,33.10
2019-02-25T05:56:07.508Z,33.10
2019-02-25T05:58:39.262Z,35.90
2019-02-25T06:01:11.164Z,29.60
2019-02-25T06:03:42.879Z,30.67
2019-02-25T06:06:14.549Z,33.30
2019-02-25T06:08:46.325Z,30.90
2019-02-25T06:11:18.094Z,32.90
2019-02-25T06:13:49.777Z,31.37
2019-02-25T06:16:21.551Z,31.33
2019-02-25T06:18:53.371Z,34.17
2019-02-25T06:21:25.122Z,33.07
2019-02-25T06:23:56.846Z,33.37
2019-02-25T06:26:28.639Z,33.33
2019-02-25T06:29:00.375Z,29.40
2019-02-25T06:31:32.285Z,35.33
2019-02-25T06:34:05.140Z,37.90
2019-02-25T06:36:37.013Z,34.67
2019-02-25T06:39:09.058Z,29.30
2019-02-25T06:41:40.821Z,31.80
2019-02-25T06:44:12.521Z,30.23
2019-02-25T06:46:44.353Z,30.13
2019-02-25T06:49:16.141Z,32.53
2019-02-25T06:51:47.881Z,29.83
2019-02-25T06:54:19.772Z,31.17
2019-02-25T06:56:51.493Z,26.40
2019-02-25T06:59:23.208Z,30.50
2019-02-25T07:01:54.886Z,34.70
2019-02-25T07:05:01.308Z,32.63
2019-02-25T07:07:53.852Z,31.40
2019-02-25T07:10:56.950Z,32.70
2019-02-25T07:13:47.650Z,34.87
2019-02-25T07:16:37.137Z,33.23
2019-02-25T07:19:40.637Z,31.43
2019-02-25T07:22:30.219Z,34.03
2019-02-25T07:25:39.461Z,36.00
2019-02-25T07:28:36.596Z,33.73
2019-02-25T07:31:45.442Z,34.40
2019-02-25T07:34:43.410Z,29.70
2019-02-25T07:37:28.667Z,36.03
2019-02-25T07:40:08.324Z,31.67
2019-02-25T07:43:11.020Z,30.30
2019-02-25T07:45:52.408Z,32.17
2019-02-25T07:48:42.408Z,33.30
2019-02-25T07:51:36.474Z,34.35
2019-02-25T07:54:33.229Z,31.30
2019-02-25T07:57:20.158Z,32.03
2019-02-25T08:00:28.961Z,32.83
2019-02-25T08:03:28.365Z,30.80
2019-02-25T08:06:28.996Z,31.73
2019-02-25T08:09:31.785Z,31.90
2019-02-25T08:12:31.475Z,30.30
2019-02-25T08:15:12.065Z,29.90
2019-02-25T08:17:56.831Z,35.93
2019-02-25T08:20:59.512Z,36.63
2019-02-25T08:23:48.883Z,33.17
2019-02-25T08:26:39.596Z,30.23
2019-02-25T08:29:30.294Z,34.17
2019-02-25T08:32:19.065Z,32.03
2019-02-25T08:35:25.118Z,33.17
2019-02-25T08:38:30.480Z,37.10
2019-02-25T08:41:24.963Z,31.33
2019-02-25T08:44:27.855Z,32.80
2019-02-25T08:47:21.721Z,32.10
2019-02-25T08:49:56.315Z,34.73
2019-02-25T08:52:28.290Z,36.17
2019-02-25T08:55:00.001Z,33.30
2019-02-25T08:57:32.175Z,31.90
2019-02-25T09:00:04.003Z,33.93
2019-02-25T09:02:37.074Z,35.43
2019-02-25T09:05:10.760Z,33.43
2019-02-25T09:07:42.846Z,31.80
2019-02-25T09:10:15.145Z,36.23
2019-02-25T09:12:48.828Z,32.47
2019-02-25T09:15:20.521Z,32.70
2019-02-25T09:17:50.318Z,30.13
2019-02-25T09:20:22.280Z,32.47
2019-02-25T09:22:54.160Z,34.37
2019-02-25T09:25:26.041Z,33.00
2019-02-25T09:27:58.061Z,34.80
2019-02-25T09:30:29.772Z,30.53
2019-02-25T09:33:01.424Z,31.83
2019-02-25T09:35:33.234Z,34.60
2019-02-25T09:38:05.244Z,37.80
2019-02-25T09:40:37.170Z,32.23
2019-02-25T09:43:08.975Z,39.33
2019-02-25T09:45:40.757Z,32.33
2019-02-25T09:48:12.556Z,32.27
2019-02-25T09:50:44.618Z,32.87
2019-02-25T09:53:16.501Z,35.67
2019-02-25T09:55:48.547Z,35.20
2019-02-25T09:58:20.308Z,34.27
2019-02-25T10:00:52.288Z,36.30
2019-02-25T10:03:24.009Z,31.07
2019-02-25T10:05:55.839Z,32.17
2019-02-25T10:08:27.818Z,33.57
2019-02-25T10:10:59.678Z,33.20
2019-02-25T10:13:31.517Z,31.80
2019-02-25T10:16:03.335Z,33.23
2019-02-25T10:18:35.405Z,31.00
2019-02-25T10:21:07.107Z,32.37
2019-02-25T10:23:40.472Z,35.07
2019-02-25T10:26:12.933Z,30.23
2019-02-25T10:28:44.843Z,32.03
2019-02-25T10:31:17.486Z,29.50
2019-02-25T10:33:50.819Z,32.93
2019-02-25T10:36:22.904Z,32.80
2019-02-25T10:38:54.652Z,34.50
2019-02-25T10:41:27.860Z,35.50
2019-02-25T10:44:00.263Z,35.87
2019-02-25T10:46:33.133Z,33.17
2019-02-25T10:49:11.211Z,36.00
2019-02-25T10:51:40.642Z,31.47
2019-02-25T10:54:11.784Z,32.07
2019-02-25T10:56:57.865Z,35.87
2019-02-25T10:59:31.815Z,31.83
2019-02-25T11:02:03.217Z,34.03
2019-02-25T11:04:34.837Z,32.93
2019-02-25T11:07:07.827Z,34.80
2019-02-25T11:09:59.243Z,36.97
2019-02-25T11:12:32.162Z,32.87
2019-02-25T11:15:05.287Z,31.63
2019-02-25T11:17:37.906Z,37.00
2019-02-25T11:20:10.525Z,36.80
2019-02-25T11:22:43.638Z,42.70
2019-02-25T11:25:16.252Z,35.30
2019-02-25T11:27:48.060Z,32.60
2019-02-25T11:30:21.513Z,33.63
2019-02-25T11:32:55.407Z,32.27
2019-02-25T11:35:26.734Z,35.13
2019-02-25T11:37:59.638Z,35.40
2019-02-25T11:40:33.615Z,38.10
2019-02-25T11:43:05.268Z,34.97
2019-02-25T11:45:37.101Z,38.00
2019-02-25T11:48:08.908Z,37.40
2019-02-25T11:50:40.652Z,37.73
2019-02-25T11:53:12.576Z,40.60
2019-02-25T11:55:44.429Z,36.90
2019-02-25T11:58:16.249Z,37.80
2019-02-25T12:00:47.992Z,37.10
2019-02-25T12:03:19.654Z,38.63
2019-02-25T12:05:52.592Z,39.97
2019-02-25T12:08:24.548Z,35.40
2019-02-25T12:10:56.447Z,43.10
2019-02-25T12:13:29.030Z,38.83
2019-02-25T12:16:00.819Z,38.67
2019-02-25T12:18:32.529Z,36.77
2019-02-25T12:21:04.771Z,38.83
2019-02-25T12:23:36.625Z,43.10
2019-02-25T12:26:08.428Z,40.80
2019-02-25T12:28:40.262Z,41.33
2019-02-25T12:31:12.347Z,40.63
2019-02-25T12:33:44.178Z,42.37
2019-02-25T12:36:15.963Z,43.10
2019-02-25T12:38:47.745Z,42.53
2019-02-25T12:41:19.604Z,43.50
2019-02-25T12:43:51.459Z,43.17
2019-02-25T12:46:23.493Z,44.53
2019-02-25T12:48:55.449Z,45.67
2019-02-25T12:51:28.255Z,42.07
2019-02-25T12:54:00.149Z,42.93
2019-02-25T12:56:32.058Z,42.30
2019-02-25T12:59:05.242Z,49.67
2019-02-25T13:01:37.319Z,39.63
2019-02-25T13:04:09.184Z,41.23
2019-02-25T13:06:40.978Z,42.70
2019-02-25T13:09:15.320Z,44.90
2019-02-25T13:11:46.976Z,42.57
2019-02-25T13:14:19.763Z,41.63
2019-02-25T13:16:51.505Z,46.07
2019-02-25T13:19:23.331Z,47.03
2019-02-25T13:21:54.987Z,46.17
2019-02-25T13:24:28.374Z,42.23
2019-02-25T13:27:01.019Z,43.90
2019-02-25T13:29:33.151Z,50.47
2019-02-25T13:32:04.951Z,42.97
2019-02-25T13:34:36.771Z,45.30
2019-02-25T13:37:08.783Z,46.73
2019-02-25T13:39:40.648Z,46.53
2019-02-25T13:42:12.560Z,39.00
2019-02-25T13:44:44.188Z,47.07
2019-02-25T13:47:16.065Z,45.23
2019-02-25T13:49:47.845Z,44.03
2019-02-25T13:52:19.588Z,42.73
2019-02-25T13:54:51.462Z,42.70
2019-02-25T13:57:23.248Z,46.57
2019-02-25T13:59:55.008Z,44.47
2019-02-25T14:02:26.980Z,45.50
2019-02-25T14:04:58.746Z,45.67
2019-02-25T14:07:30.630Z,47.03
2019-02-25T14:10:02.590Z,45.00
2019-02-25T14:12:35.808Z,45.00
2019-02-25T14:15:08.032Z,48.23
2019-02-25T14:17:40.066Z,53.43
2019-02-25T14:20:13.974Z,47.30
2019-02-25T14:22:45.804Z,50.73
2019-02-25T14:25:19.979Z,48.63
2019-02-25T14:27:53.031Z,52.40
2019-02-25T14:30:26.233Z,57.17
2019-02-25T14:32:58.026Z,51.87
2019-02-25T14:35:29.929Z,54.37
2019-02-25T14:38:07.654Z,54.17
2019-02-25T14:40:39.365Z,53.93
2019-02-25T14:43:12.609Z,53.77
2019-02-25T14:45:45.970Z,54.30
2019-02-25T14:48:20.359Z,57.73
2019-02-25T14:50:50.772Z,59.17
2019-02-25T14:53:22.813Z,54.70
2019-02-25T14:55:56.018Z,60.90
2019-02-25T14:58:31.332Z,55.43
2019-02-25T15:01:01.172Z,58.93
2019-02-25T15:03:33.180Z,58.70
2019-02-25T15:06:06.054Z,54.27
2019-02-25T15:08:37.915Z,62.97
2019-02-25T15:11:11.334Z,65.27
2019-02-25T15:13:43.324Z,59.00
2019-02-25T15:16:16.903Z,63.57
2019-02-25T15:18:48.819Z,61.50
2019-02-25T15:21:20.812Z,58.50
2019-02-25T15:23:53.228Z,67.63
2019-02-25T15:26:25.682Z,74.70
2019-02-25T15:29:00.718Z,65.90
2019-02-25T15:31:33.151Z,63.07
2019-02-25T15:34:05.091Z,60.83
2019-02-25T15:36:37.271Z,66.20
2019-02-25T15:39:11.271Z,65.87
2019-02-25T15:41:44.387Z,70.50
2019-02-25T15:44:16.653Z,67.40
2019-02-25T15:46:48.681Z,69.47
2019-02-25T15:49:21.749Z,73.50
2019-02-25T15:51:54.185Z,74.87
2019-02-25T15:54:28.977Z,75.10
2019-02-25T15:56:59.297Z,73.67
2019-02-25T15:59:32.247Z,77.87
2019-02-25T16:02:05.602Z,82.37
2019-02-25T16:04:38.307Z,85.30
2019-02-25T16:07:12.186Z,84.03
2019-02-25T16:09:44.092Z,88.90
2019-02-25T16:12:15.921Z,82.27
2019-02-25T16:14:49.269Z,88.67
2019-02-25T16:17:22.296Z,91.43
2019-02-25T16:19:54.508Z,84.73
2019-02-25T16:22:29.559Z,91.27
2019-02-25T16:25:00.571Z,89.80
2019-02-25T16:27:33.889Z,90.23
2019-02-25T16:30:07.064Z,88.53
2019-02-25T16:32:40.114Z,89.20
2019-02-25T16:35:12.614Z,90.83
2019-02-25T16:37:45.370Z,96.32
2019-02-25T16:40:17.079Z,88.97
2019-02-25T16:42:49.280Z,87.90
2019-02-25T16:45:21.279Z,86.93
2019-02-25T16:47:53.267Z,94.60
2019-02-25T16:50:25.219Z,99.00
2019-02-25T16:52:57.407Z,95.70
2019-02-25T16:55:29.063Z,92.03
2019-02-25T16:58:03.042Z,96.53
2019-02-25T17:00:36.637Z,97.63
2019-02-25T17:03:09.279Z,91.23
2019-02-25T17:05:42.818Z,91.73
2019-02-25T17:08:19.219Z,88.93
2019-02-25T17:10:51.903Z,87.33
2019-02-25T17:13:24.689Z,91.30
2019-02-25T17:15:57.000Z,86.20
2019-02-25T17:18:30.916Z,88.30
2019-02-25T17:21:02.409Z,79.83
2019-02-25T17:23:34.863Z,86.07
2019-02-25T17:26:09.957Z,83.60
2019-02-25T17:28:41.369Z,88.20
2019-02-25T17:31:14.347Z,80.60
2019-02-25T17:33:49.085Z,78.90
2019-02-25T17:36:20.489Z,76.30
2019-02-25T17:38:52.479Z,90.23
2019-02-25T17:41:24.239Z,90.50
2019-02-25T17:43:57.079Z,83.47
2019-02-25T17:46:32.640Z,92.80
2019-02-25T17:49:02.798Z,88.77
2019-02-25T17:51:34.549Z,95.67
2019-02-25T17:54:07.941Z,110.73
2019-02-25T17:56:40.966Z,99.37
2019-02-25T17:59:13.639Z,100.27
2019-02-25T18:01:46.309Z,101.87
2019-02-25T18:04:18.647Z,100.17
2019-02-25T18:06:50.391Z,109.77
2019-02-25T18:09:22.631Z,103.20
2019-02-25T18:11:55.799Z,100.30
2019-02-25T18:14:27.787Z,103.23
2019-02-25T18:16:59.600Z,106.07
2019-02-25T18:19:31.659Z,102.13
2019-02-25T18:22:03.492Z,101.90
2019-02-25T18:24:35.179Z,102.33
2019-02-25T18:27:08.384Z,97.80
2019-02-25T18:29:41.380Z,100.43
2019-02-25T18:32:13.557Z,95.30
2019-02-25T18:34:45.527Z,88.10
2019-02-25T18:37:17.736Z,90.43
2019-02-25T18:39:50.121Z,84.33
2019-02-25T18:42:23.079Z,98.57
2019-02-25T18:44:55.549Z,93.70
2019-02-25T18:47:27.603Z,96.07
2019-02-25T18:50:00.945Z,96.57
2019-02-25T18:52:35.806Z,101.80
2019-02-25T18:55:08.957Z,99.03
2019-02-25T18:57:42.179Z,104.23
2019-02-25T19:00:22.147Z,96.20
2019-02-25T19:02:56.268Z,106.20
2019-02-25T19:05:31.451Z,102.80
2019-02-25T19:08:05.189Z,93.90
2019-02-25T19:10:41.282Z,96.00
2019-02-25T19:13:13.326Z,98.83
2019-02-25T19:15:48.760Z,96.00
2019-02-25T19:18:20.596Z,104.67
2019-02-25T19:20:52.261Z,111.67
2019-02-25T19:23:24.845Z,92.83
2019-02-25T19:25:56.579Z,93.47
2019-02-25T19:28:30.220Z,108.97
2019-02-25T19:31:03.513Z,102.90
2019-02-25T19:33:37.121Z,97.33
2019-02-25T19:36:10.534Z,97.97
2019-02-25T19:38:45.666Z,92.53
2019-02-25T19:41:20.652Z,98.90
2019-02-25T19:43:59.127Z,98.30
2019-02-25T19:46:27.109Z,96.57
2019-02-25T19:48:59.109Z,88.27
2019-02-25T19:51:33.090Z,92.93
2019-02-25T19:54:07.064Z,100.80
2019-02-25T19:56:38.807Z,93.47
2019-02-25T19:59:11.217Z,95.97
2019-02-25T20:01:43.470Z,91.40
2019-02-25T20:04:16.936Z,94.87
2019-02-25T20:06:51.366Z,85.00
2019-02-25T20:09:24.240Z,87.87
2019-02-25T20:11:57.352Z,89.27
2019-02-25T20:14:31.431Z,85.53
2019-02-25T20:17:02.941Z,90.83
2019-02-25T20:19:34.987Z,95.87
2019-02-25T20:22:07.804Z,99.10
2019-02-25T20:24:44.319Z,96.33
2019-02-25T20:27:14.949Z,100.17
2019-02-25T20:29:47.912Z,102.80
2019-02-25T20:32:20.715Z,103.00
2019-02-25T20:34:54.465Z,100.90
2019-02-25T20:37:27.455Z,93.70
2019-02-25T20:40:00.705Z,99.33
2019-02-25T20:42:32.790Z,109.50
2019-02-25T20:45:05.073Z,100.93
2019-02-25T20:47:38.353Z,108.03
2019-02-25T20:50:14.417Z,101.63
2019-02-25T20:52:45.871Z,106.80
2019-02-25T20:55:17.703Z,101.77
2019-02-25T20:57:49.480Z,124.47
2019-02-25T21:00:22.072Z,118.03
2019-02-25T21:02:53.917Z,109.13
2019-02-25T21:05:27.364Z,118.17
2019-02-25T21:08:00.124Z,118.83
2019-02-25T21:10:35.653Z,119.13
2019-02-25T21:13:07.203Z,123.20
2019-02-25T21:15:40.641Z,122.67
2019-02-25T21:18:12.283Z,129.33
2019-02-25T21:20:45.246Z,127.07
2019-02-25T21:23:17.742Z,129.33
2019-02-25T21:25:53.520Z,129.33
2019-02-25T21:28:30.980Z,129.90
2019-02-25T21:31:02.439Z,126.13
2019-02-25T21:33:34.088Z,133.17
2019-02-25T21:36:06.031Z,127.00
2019-02-25T21:38:37.779Z,127.77
2019-02-25T21:41:10.996Z,129.80
2019-02-25T21:43:43.577Z,130.13
2019-02-25T21:46:19.800Z,129.70
2019-02-25T21:48:53.131Z,135.30
2019-02-25T21:51:24.204Z,134.30
2019-02-25T21:53:58.085Z,137.07
2019-02-25T21:56:29.480Z,130.00
2019-02-25T21:59:01.279Z,140.40
2019-02-25T22:01:34.524Z,122.33
2019-02-25T22:04:09.288Z,132.67
2019-02-25T22:06:40.883Z,123.60
2019-02-25T22:09:12.922Z,118.13
2019-02-25T22:11:44.631Z,117.27
2019-02-25T22:14:18.230Z,114.73
2019-02-25T22:16:52.110Z,131.57
2019-02-25T22:19:23.313Z,118.00
2019-02-25T22:21:57.565Z,118.67
2019-02-25T22:24:30.014Z,118.97
2019-02-25T22:27:01.917Z,115.97
2019-02-25T22:29:36.117Z,127.87
2019-02-25T22:32:08.642Z,125.40
2019-02-25T22:34:40.284Z,108.93
2019-02-25T22:37:14.554Z,120.43
2019-02-25T22:39:46.100Z,124.63
2019-02-25T22:42:18.709Z,119.20
2019-02-25T22:44:51.689Z,121.27
2019-02-25T22:47:24.044Z,123.80
2019-02-25T22:49:55.839Z,123.67
2019-02-25T22:52:29.256Z,130.20
2019-02-25T22:55:00.896Z,127.37
2019-02-25T22:57:32.631Z,126.23
2019-02-25T23:00:06.408Z,129.33
2019-02-25T23:02:43.097Z,120.20
2019-02-25T23:05:15.186Z,127.13
2019-02-25T23:07:48.137Z,131.50
2019-02-25T23:10:21.962Z,124.53
2019-02-25T23:12:54.885Z,125.73
2019-02-25T23:15:28.158Z,122.27
2019-02-25T23:18:05.388Z,133.87
2019-02-25T23:20:34.041Z,124.10
2019-02-25T23:23:06.680Z,122.63
2019-02-25T23:25:38.794Z,125.07
2019-02-25T23:28:10.699Z,127.13
2019-02-25T23:30:42.435Z,119.77
2019-02-25T23:33:14.456Z,116.67
2019-02-25T23:35:49.065Z,121.50
2019-02-25T23:38:21.107Z,113.63
2019-02-25T23:40:52.685Z,122.67
2019-02-25T23:43:25.401Z,121.60
2019-02-25T23:45:57.995Z,114.87
2019-02-25T23:48:33.005Z,121.07
2019-02-25T23:51:03.980Z,119.10
2019-02-25T23:53:36.000Z,127.07
2019-02-25T23:56:07.681Z,113.40
2019-02-25T23:58:42.353Z,109.97
